sensor_id;sensor_type;location;lat;lon;timestamp;temperature;humidity
1413;DHT22;701;52.526;13.408;2022-10-16T00:01:34;16.30;42.60
1413;DHT22;701;52.526;13.408;2022-10-16T00:04:01;16.30;42.50
1413;DHT22;701;52.526;13.408;2022-10-16T00:06:29;16.40;42.50
1413;DHT22;701;52.526;13.408;2022-10-16T00:08:56;16.40;42.40
1413;DHT22;701;52.526;13.408;2022-10-16T00:11:27;16.50;42.40
1413;DHT22;701;52.526;13.408;2022-10-16T00:13:59;16.50;42.20
1413;DHT22;701;52.526;13.408;2022-10-16T00:16:26;16.60;42.00
1413;DHT22;701;52.526;13.408;2022-10-16T00:18:52;16.60;41.70
1413;DHT22;701;52.526;13.408;2022-10-16T00:21:20;16.70;41.50
1413;DHT22;701;52.526;13.408;2022-10-16T00:23:50;16.70;41.60
1413;DHT22;701;52.526;13.408;2022-10-16T00:26:17;16.70;41.50
1413;DHT22;701;52.526;13.408;2022-10-16T00:28:46;16.80;41.60
1413;DHT22;701;52.526;13.408;2022-10-16T00:31:12;16.80;41.20
1413;DHT22;701;52.526;13.408;2022-10-16T00:33:39;16.90;40.90
1413;DHT22;701;52.526;13.408;2022-10-16T00:36:06;16.90;40.70
1413;DHT22;701;52.526;13.408;2022-10-16T00:38:32;16.90;40.40
1413;DHT22;701;52.526;13.408;2022-10-16T00:40:59;16.90;40.30
1413;DHT22;701;52.526;13.408;2022-10-16T00:45:52;16.80;40.10
1413;DHT22;701;52.526;13.408;2022-10-16T00:48:18;16.90;40.10
1413;DHT22;701;52.526;13.408;2022-10-16T00:50:44;16.80;40.10
1413;DHT22;701;52.526;13.408;2022-10-16T00:53:10;16.90;40.10
1413;DHT22;701;52.526;13.408;2022-10-16T00:55:36;16.90;40.20
1413;DHT22;701;52.526;13.408;2022-10-16T00:58:02;16.90;40.00
1413;DHT22;701;52.526;13.408;2022-10-16T01:00:28;16.90;40.00
1413;DHT22;701;52.526;13.408;2022-10-16T01:02:55;16.80;39.80
1413;DHT22;701;52.526;13.408;2022-10-16T01:05:38;16.80;39.60
1413;DHT22;701;52.526;13.408;2022-10-16T01:08:21;16.80;39.80
1413;DHT22;701;52.526;13.408;2022-10-16T01:13:43;16.70;40.10
1413;DHT22;701;52.526;13.408;2022-10-16T01:16:18;16.70;40.20
1413;DHT22;701;52.526;13.408;2022-10-16T01:18:57;16.70;40.10
1413;DHT22;701;52.526;13.408;2022-10-16T01:21:29;16.70;40.10
1413;DHT22;701;52.526;13.408;2022-10-16T01:24:16;16.70;40.00
1413;DHT22;701;52.526;13.408;2022-10-16T01:27:15;16.60;39.90
1413;DHT22;701;52.526;13.408;2022-10-16T01:30:07;16.60;40.20
1413;DHT22;701;52.526;13.408;2022-10-16T01:35:14;16.50;40.50
1413;DHT22;701;52.526;13.408;2022-10-16T01:38:17;16.50;40.90
1413;DHT22;701;52.526;13.408;2022-10-16T01:40:37;16.50;41.00
1413;DHT22;701;52.526;13.408;2022-10-16T01:43:14;16.60;41.40
1413;DHT22;701;52.526;13.408;2022-10-16T01:45:41;16.60;41.40
1413;DHT22;701;52.526;13.408;2022-10-16T01:48:09;16.60;41.10
1413;DHT22;701;52.526;13.408;2022-10-16T01:50:39;16.60;41.00
1413;DHT22;701;52.526;13.408;2022-10-16T01:53:07;16.50;41.10
1413;DHT22;701;52.526;13.408;2022-10-16T01:55:39;16.50;41.00
1413;DHT22;701;52.526;13.408;2022-10-16T01:58:09;16.50;41.20
1413;DHT22;701;52.526;13.408;2022-10-16T02:00:38;16.50;41.30
1413;DHT22;701;52.526;13.408;2022-10-16T02:03:05;16.50;41.30
1413;DHT22;701;52.526;13.408;2022-10-16T02:05:45;16.50;41.30
1413;DHT22;701;52.526;13.408;2022-10-16T02:08:11;16.50;41.30
1413;DHT22;701;52.526;13.408;2022-10-16T02:10:38;16.60;41.40
1413;DHT22;701;52.526;13.408;2022-10-16T02:13:14;16.60;41.40
1413;DHT22;701;52.526;13.408;2022-10-16T02:15:41;16.60;41.40
1413;DHT22;701;52.526;13.408;2022-10-16T02:18:07;16.60;41.40
1413;DHT22;701;52.526;13.408;2022-10-16T02:26:08;16.70;41.40
1413;DHT22;701;52.526;13.408;2022-10-16T02:28:50;16.70;41.20
1413;DHT22;701;52.526;13.408;2022-10-16T02:31:24;16.70;41.00
1413;DHT22;701;52.526;13.408;2022-10-16T02:33:52;16.80;41.00
1413;DHT22;701;52.526;13.408;2022-10-16T02:36:20;16.80;40.80
1413;DHT22;701;52.526;13.408;2022-10-16T02:38:46;16.80;40.70
1413;DHT22;701;52.526;13.408;2022-10-16T02:41:12;16.80;40.50
1413;DHT22;701;52.526;13.408;2022-10-16T02:43:38;16.80;40.60
1413;DHT22;701;52.526;13.408;2022-10-16T02:46:03;16.80;40.50
1413;DHT22;701;52.526;13.408;2022-10-16T02:48:29;16.80;40.40
1413;DHT22;701;52.526;13.408;2022-10-16T02:50:54;16.80;40.30
1413;DHT22;701;52.526;13.408;2022-10-16T02:53:20;16.80;40.40
1413;DHT22;701;52.526;13.408;2022-10-16T02:55:46;16.80;40.30
1413;DHT22;701;52.526;13.408;2022-10-16T02:58:11;16.80;40.30
1413;DHT22;701;52.526;13.408;2022-10-16T03:00:37;16.80;40.20
1413;DHT22;701;52.526;13.408;2022-10-16T03:03:03;16.80;40.10
1413;DHT22;701;52.526;13.408;2022-10-16T03:05:28;16.80;40.10
1413;DHT22;701;52.526;13.408;2022-10-16T03:07:54;16.80;39.90
1413;DHT22;701;52.526;13.408;2022-10-16T03:10:21;16.70;39.80
1413;DHT22;701;52.526;13.408;2022-10-16T03:12:46;16.70;39.80
1413;DHT22;701;52.526;13.408;2022-10-16T03:15:12;16.60;39.70
1413;DHT22;701;52.526;13.408;2022-10-16T03:17:38;16.60;39.80
1413;DHT22;701;52.526;13.408;2022-10-16T03:20:04;16.50;40.00
1413;DHT22;701;52.526;13.408;2022-10-16T03:22:30;16.50;40.10
1413;DHT22;701;52.526;13.408;2022-10-16T03:24:55;16.40;40.30
1413;DHT22;701;52.526;13.408;2022-10-16T03:27:21;16.40;40.40
1413;DHT22;701;52.526;13.408;2022-10-16T03:29:46;16.30;40.50
1413;DHT22;701;52.526;13.408;2022-10-16T03:32:12;16.30;40.70
1413;DHT22;701;52.526;13.408;2022-10-16T03:34:38;16.30;40.80
1413;DHT22;701;52.526;13.408;2022-10-16T03:37:03;16.30;40.90
1413;DHT22;701;52.526;13.408;2022-10-16T03:39:29;16.20;41.00
1413;DHT22;701;52.526;13.408;2022-10-16T03:41:55;16.20;41.00
1413;DHT22;701;52.526;13.408;2022-10-16T03:44:20;16.10;40.90
1413;DHT22;701;52.526;13.408;2022-10-16T03:46:46;16.10;40.90
1413;DHT22;701;52.526;13.408;2022-10-16T03:49:12;16.00;41.40
1413;DHT22;701;52.526;13.408;2022-10-16T03:51:38;16.00;41.60
1413;DHT22;701;52.526;13.408;2022-10-16T03:54:03;16.00;41.80
1413;DHT22;701;52.526;13.408;2022-10-16T03:56:29;15.90;42.30
1413;DHT22;701;52.526;13.408;2022-10-16T03:58:55;15.90;42.50
1413;DHT22;701;52.526;13.408;2022-10-16T04:01:20;15.90;42.60
1413;DHT22;701;52.526;13.408;2022-10-16T04:03:46;15.90;42.70
1413;DHT22;701;52.526;13.408;2022-10-16T04:06:11;15.90;42.80
1413;DHT22;701;52.526;13.408;2022-10-16T04:08:37;15.90;43.00
1413;DHT22;701;52.526;13.408;2022-10-16T04:11:04;15.90;43.10
1413;DHT22;701;52.526;13.408;2022-10-16T04:13:30;15.90;43.30
1413;DHT22;701;52.526;13.408;2022-10-16T04:15:56;15.90;43.70
1413;DHT22;701;52.526;13.408;2022-10-16T04:18:21;15.90;43.80
1413;DHT22;701;52.526;13.408;2022-10-16T04:20:47;15.90;44.10
1413;DHT22;701;52.526;13.408;2022-10-16T04:23:13;15.90;44.30
1413;DHT22;701;52.526;13.408;2022-10-16T04:25:38;15.90;44.20
1413;DHT22;701;52.526;13.408;2022-10-16T04:28:04;15.90;44.20
1413;DHT22;701;52.526;13.408;2022-10-16T04:30:30;15.90;44.40
1413;DHT22;701;52.526;13.408;2022-10-16T04:32:56;15.90;44.30
1413;DHT22;701;52.526;13.408;2022-10-16T04:35:22;15.90;44.50
1413;DHT22;701;52.526;13.408;2022-10-16T04:37:47;15.90;44.40
1413;DHT22;701;52.526;13.408;2022-10-16T04:40:14;15.90;44.60
1413;DHT22;701;52.526;13.408;2022-10-16T04:42:40;15.80;44.40
1413;DHT22;701;52.526;13.408;2022-10-16T04:45:06;15.90;44.40
1413;DHT22;701;52.526;13.408;2022-10-16T04:47:33;15.80;44.50
1413;DHT22;701;52.526;13.408;2022-10-16T04:49:59;15.80;44.40
1413;DHT22;701;52.526;13.408;2022-10-16T04:52:26;15.80;44.60
1413;DHT22;701;52.526;13.408;2022-10-16T04:54:52;15.80;44.50
1413;DHT22;701;52.526;13.408;2022-10-16T04:57:17;15.80;44.40
1413;DHT22;701;52.526;13.408;2022-10-16T04:59:43;15.80;44.40
1413;DHT22;701;52.526;13.408;2022-10-16T05:02:09;15.70;44.20
1413;DHT22;701;52.526;13.408;2022-10-16T05:04:35;15.70;44.20
1413;DHT22;701;52.526;13.408;2022-10-16T05:07:00;15.70;44.30
1413;DHT22;701;52.526;13.408;2022-10-16T05:09:27;15.70;44.50
1413;DHT22;701;52.526;13.408;2022-10-16T05:11:53;15.60;44.40
1413;DHT22;701;52.526;13.408;2022-10-16T05:14:18;15.60;44.90
1413;DHT22;701;52.526;13.408;2022-10-16T05:16:44;15.60;44.90
1413;DHT22;701;52.526;13.408;2022-10-16T05:19:10;15.60;44.90
1413;DHT22;701;52.526;13.408;2022-10-16T05:21:35;15.60;44.90
1413;DHT22;701;52.526;13.408;2022-10-16T05:24:01;15.60;45.60
1413;DHT22;701;52.526;13.408;2022-10-16T05:26:27;15.60;44.90
1413;DHT22;701;52.526;13.408;2022-10-16T05:28:52;15.60;45.00
1413;DHT22;701;52.526;13.408;2022-10-16T05:31:18;15.70;45.20
1413;DHT22;701;52.526;13.408;2022-10-16T05:33:44;15.70;45.00
1413;DHT22;701;52.526;13.408;2022-10-16T05:36:10;15.70;45.00
1413;DHT22;701;52.526;13.408;2022-10-16T05:38:37;15.80;45.20
1413;DHT22;701;52.526;13.408;2022-10-16T05:41:04;15.80;45.10
1413;DHT22;701;52.526;13.408;2022-10-16T05:43:31;15.80;45.10
1413;DHT22;701;52.526;13.408;2022-10-16T05:45:58;15.80;45.20
1413;DHT22;701;52.526;13.408;2022-10-16T05:48:25;15.80;45.10
1413;DHT22;701;52.526;13.408;2022-10-16T05:51:03;15.80;45.10
1413;DHT22;701;52.526;13.408;2022-10-16T05:53:31;15.90;45.10
1413;DHT22;701;52.526;13.408;2022-10-16T05:55:57;15.90;45.10
1413;DHT22;701;52.526;13.408;2022-10-16T05:58:23;16.00;45.20
1413;DHT22;701;52.526;13.408;2022-10-16T06:01:03;16.00;45.00
1413;DHT22;701;52.526;13.408;2022-10-16T06:03:29;16.00;44.70
1413;DHT22;701;52.526;13.408;2022-10-16T06:05:55;16.00;44.50
1413;DHT22;701;52.526;13.408;2022-10-16T06:08:22;16.00;44.50
1413;DHT22;701;52.526;13.408;2022-10-16T06:10:48;15.90;44.40
1413;DHT22;701;52.526;13.408;2022-10-16T06:13:14;16.00;44.50
1413;DHT22;701;52.526;13.408;2022-10-16T06:15:42;16.00;44.50
1413;DHT22;701;52.526;13.408;2022-10-16T06:18:10;16.00;44.40
1413;DHT22;701;52.526;13.408;2022-10-16T06:20:37;16.00;44.20
1413;DHT22;701;52.526;13.408;2022-10-16T06:23:05;16.10;44.20
1413;DHT22;701;52.526;13.408;2022-10-16T06:25:31;16.10;44.00
1413;DHT22;701;52.526;13.408;2022-10-16T06:27:57;16.20;43.70
1413;DHT22;701;52.526;13.408;2022-10-16T06:30:23;16.20;43.70
1413;DHT22;701;52.526;13.408;2022-10-16T06:32:48;16.30;43.50
1413;DHT22;701;52.526;13.408;2022-10-16T06:35:14;16.30;43.30
1413;DHT22;701;52.526;13.408;2022-10-16T06:37:40;16.40;43.00
1413;DHT22;701;52.526;13.408;2022-10-16T06:40:06;16.50;42.60
1413;DHT22;701;52.526;13.408;2022-10-16T06:42:31;16.60;42.30
1413;DHT22;701;52.526;13.408;2022-10-16T06:44:58;16.60;41.80
1413;DHT22;701;52.526;13.408;2022-10-16T06:47:24;16.60;41.50
1413;DHT22;701;52.526;13.408;2022-10-16T06:49:49;16.70;41.50
1413;DHT22;701;52.526;13.408;2022-10-16T06:52:15;16.70;41.10
1413;DHT22;701;52.526;13.408;2022-10-16T06:54:40;16.80;40.90
1413;DHT22;701;52.526;13.408;2022-10-16T06:57:06;16.80;40.70
1413;DHT22;701;52.526;13.408;2022-10-16T06:59:33;16.80;40.50
1413;DHT22;701;52.526;13.408;2022-10-16T07:01:59;16.90;40.30
1413;DHT22;701;52.526;13.408;2022-10-16T07:04:24;16.90;40.20
1413;DHT22;701;52.526;13.408;2022-10-16T07:06:50;17.00;40.10
1413;DHT22;701;52.526;13.408;2022-10-16T07:09:17;17.10;39.90
1413;DHT22;701;52.526;13.408;2022-10-16T07:11:42;17.30;39.70
1413;DHT22;701;52.526;13.408;2022-10-16T07:14:19;17.40;39.40
1413;DHT22;701;52.526;13.408;2022-10-16T07:16:45;17.60;37.90
1413;DHT22;701;52.526;13.408;2022-10-16T07:19:11;17.90;38.10
1413;DHT22;701;52.526;13.408;2022-10-16T07:21:40;18.10;37.80
1413;DHT22;701;52.526;13.408;2022-10-16T07:24:10;18.30;36.80
1413;DHT22;701;52.526;13.408;2022-10-16T07:26:37;18.40;35.70
1413;DHT22;701;52.526;13.408;2022-10-16T07:29:15;18.60;35.00
1413;DHT22;701;52.526;13.408;2022-10-16T07:31:42;18.60;34.20
1413;DHT22;701;52.526;13.408;2022-10-16T07:34:08;18.70;33.90
1413;DHT22;701;52.526;13.408;2022-10-16T07:36:34;18.80;33.20
1413;DHT22;701;52.526;13.408;2022-10-16T07:39:00;18.90;32.80
1413;DHT22;701;52.526;13.408;2022-10-16T07:41:26;19.00;32.20
1413;DHT22;701;52.526;13.408;2022-10-16T07:43:53;19.10;32.00
1413;DHT22;701;52.526;13.408;2022-10-16T07:46:20;19.10;31.40
1413;DHT22;701;52.526;13.408;2022-10-16T07:48:46;19.20;31.10
1413;DHT22;701;52.526;13.408;2022-10-16T07:51:15;19.20;30.50
1413;DHT22;701;52.526;13.408;2022-10-16T07:53:41;19.30;30.90
1413;DHT22;701;52.526;13.408;2022-10-16T07:56:08;19.30;30.30
1413;DHT22;701;52.526;13.408;2022-10-16T07:58:34;19.30;30.90
1413;DHT22;701;52.526;13.408;2022-10-16T08:01:04;19.30;30.20
1413;DHT22;701;52.526;13.408;2022-10-16T08:03:30;19.30;29.90
1413;DHT22;701;52.526;13.408;2022-10-16T08:05:57;19.30;29.80
1413;DHT22;701;52.526;13.408;2022-10-16T08:08:23;19.40;29.80
1413;DHT22;701;52.526;13.408;2022-10-16T08:10:49;19.40;29.70
1413;DHT22;701;52.526;13.408;2022-10-16T08:13:15;19.40;29.60
1413;DHT22;701;52.526;13.408;2022-10-16T08:15:42;19.50;29.40
1413;DHT22;701;52.526;13.408;2022-10-16T08:18:10;19.50;29.30
1413;DHT22;701;52.526;13.408;2022-10-16T08:20:35;19.60;29.20
1413;DHT22;701;52.526;13.408;2022-10-16T08:23:02;19.60;28.80
1413;DHT22;701;52.526;13.408;2022-10-16T08:25:28;19.60;28.60
1413;DHT22;701;52.526;13.408;2022-10-16T08:27:54;19.70;28.60
1413;DHT22;701;52.526;13.408;2022-10-16T08:30:21;19.80;28.30
1413;DHT22;701;52.526;13.408;2022-10-16T08:32:47;19.90;28.00
1413;DHT22;701;52.526;13.408;2022-10-16T08:35:13;20.00;27.80
1413;DHT22;701;52.526;13.408;2022-10-16T08:37:39;20.00;27.60
1413;DHT22;701;52.526;13.408;2022-10-16T08:40:07;20.10;27.30
1413;DHT22;701;52.526;13.408;2022-10-16T08:42:47;20.10;27.30
1413;DHT22;701;52.526;13.408;2022-10-16T08:50:38;20.10;26.80
1413;DHT22;701;52.526;13.408;2022-10-16T08:53:06;20.20;27.20
1413;DHT22;701;52.526;13.408;2022-10-16T08:55:45;20.20;26.90
1413;DHT22;701;52.526;13.408;2022-10-16T08:58:20;20.20;26.40
1413;DHT22;701;52.526;13.408;2022-10-16T09:00:53;20.30;26.20
1413;DHT22;701;52.526;13.408;2022-10-16T09:06:00;20.20;26.10
1413;DHT22;701;52.526;13.408;2022-10-16T09:14:49;20.30;25.90
1413;DHT22;701;52.526;13.408;2022-10-16T09:20:20;20.80;25.00
1413;DHT22;701;52.526;13.408;2022-10-16T09:22:48;21.00;24.20
1413;DHT22;701;52.526;13.408;2022-10-16T09:25:16;21.10;24.90
1413;DHT22;701;52.526;13.408;2022-10-16T09:27:46;21.30;24.40
1413;DHT22;701;52.526;13.408;2022-10-16T09:30:15;21.40;23.70
1413;DHT22;701;52.526;13.408;2022-10-16T09:32:43;21.60;23.40
1413;DHT22;701;52.526;13.408;2022-10-16T09:35:20;21.80;23.10
1413;DHT22;701;52.526;13.408;2022-10-16T09:37:50;22.20;22.20
1413;DHT22;701;52.526;13.408;2022-10-16T09:40:29;22.40;21.50
1413;DHT22;701;52.526;13.408;2022-10-16T09:45:43;22.80;20.30
1413;DHT22;701;52.526;13.408;2022-10-16T09:48:19;23.00;20.50
1413;DHT22;701;52.526;13.408;2022-10-16T09:51:02;23.30;19.90
1413;DHT22;701;52.526;13.408;2022-10-16T09:53:46;23.70;18.20
1413;DHT22;701;52.526;13.408;2022-10-16T09:56:21;24.00;17.60
1413;DHT22;701;52.526;13.408;2022-10-16T09:58:59;24.20;16.60
1413;DHT22;701;52.526;13.408;2022-10-16T10:04:05;24.10;15.50
1413;DHT22;701;52.526;13.408;2022-10-16T10:06:37;23.90;16.30
1413;DHT22;701;52.526;13.408;2022-10-16T10:09:26;23.90;16.30
1413;DHT22;701;52.526;13.408;2022-10-16T10:11:57;23.80;15.70
1413;DHT22;701;52.526;13.408;2022-10-16T10:14:37;23.70;15.90
1413;DHT22;701;52.526;13.408;2022-10-16T10:38:56;23.30;15.70
1413;DHT22;701;52.526;13.408;2022-10-16T10:46:45;23.30;15.30
1413;DHT22;701;52.526;13.408;2022-10-16T10:54:37;23.30;15.40
1413;DHT22;701;52.526;13.408;2022-10-16T11:00:10;23.30;14.90
1413;DHT22;701;52.526;13.408;2022-10-16T11:02:55;23.30;14.60
1413;DHT22;701;52.526;13.408;2022-10-16T11:05:34;23.40;14.60
1413;DHT22;701;52.526;13.408;2022-10-16T11:11:20;23.70;14.70
1413;DHT22;701;52.526;13.408;2022-10-16T11:17:14;24.40;12.60
1413;DHT22;701;52.526;13.408;2022-10-16T11:20:11;24.60;11.50
1413;DHT22;701;52.526;13.408;2022-10-16T11:22:39;24.60;11.60
1413;DHT22;701;52.526;13.408;2022-10-16T11:25:26;24.60;11.90
1413;DHT22;701;52.526;13.408;2022-10-16T11:28:14;24.60;12.10
1413;DHT22;701;52.526;13.408;2022-10-16T11:30:51;24.70;11.30
1413;DHT22;701;52.526;13.408;2022-10-16T11:36:27;24.50;11.50
1413;DHT22;701;52.526;13.408;2022-10-16T11:39:05;24.30;11.00
1413;DHT22;701;52.526;13.408;2022-10-16T11:49:38;23.30;11.70
1413;DHT22;701;52.526;13.408;2022-10-16T11:52:20;23.10;12.00
1413;DHT22;701;52.526;13.408;2022-10-16T11:57:38;22.60;12.10
1413;DHT22;701;52.526;13.408;2022-10-16T12:03:04;22.00;12.60
1413;DHT22;701;52.526;13.408;2022-10-16T12:08:15;21.50;13.00
1413;DHT22;701;52.526;13.408;2022-10-16T12:10:44;21.30;13.20
1413;DHT22;701;52.526;13.408;2022-10-16T12:18:39;20.90;13.50
1413;DHT22;701;52.526;13.408;2022-10-16T12:21:06;20.90;13.70
1413;DHT22;701;52.526;13.408;2022-10-16T12:23:47;20.90;13.90
1413;DHT22;701;52.526;13.408;2022-10-16T12:26:13;20.90;13.90
1413;DHT22;701;52.526;13.408;2022-10-16T12:28:39;20.90;14.10
1413;DHT22;701;52.526;13.408;2022-10-16T12:31:07;20.90;14.00
1413;DHT22;701;52.526;13.408;2022-10-16T12:33:51;20.90;14.10
1413;DHT22;701;52.526;13.408;2022-10-16T12:36:34;20.90;13.90
1413;DHT22;701;52.526;13.408;2022-10-16T12:39:01;20.90;13.90
1413;DHT22;701;52.526;13.408;2022-10-16T12:41:32;20.90;13.90
1413;DHT22;701;52.526;13.408;2022-10-16T12:43:59;20.90;13.60
1413;DHT22;701;52.526;13.408;2022-10-16T12:51:54;21.00;13.00
1413;DHT22;701;52.526;13.408;2022-10-16T12:59:59;21.10;12.70
1413;DHT22;701;52.526;13.408;2022-10-16T13:05:20;21.20;12.80
1413;DHT22;701;52.526;13.408;2022-10-16T13:08:17;21.20;12.60
1413;DHT22;701;52.526;13.408;2022-10-16T13:11:05;21.30;12.00
1413;DHT22;701;52.526;13.408;2022-10-16T13:21:43;21.50;11.70
1413;DHT22;701;52.526;13.408;2022-10-16T13:30:08;21.70;10.60
1413;DHT22;701;52.526;13.408;2022-10-16T13:32:34;21.70;10.90
1413;DHT22;701;52.526;13.408;2022-10-16T13:34:59;21.70;11.00
1413;DHT22;701;52.526;13.408;2022-10-16T13:37:26;21.70;10.70
1413;DHT22;701;52.526;13.408;2022-10-16T13:40:08;21.70;10.90
1413;DHT22;701;52.526;13.408;2022-10-16T13:42:37;21.80;10.50
1413;DHT22;701;52.526;13.408;2022-10-16T13:45:03;21.90;10.80
1413;DHT22;701;52.526;13.408;2022-10-16T13:47:29;21.90;10.30
1413;DHT22;701;52.526;13.408;2022-10-16T13:50:02;21.90;10.10
1413;DHT22;701;52.526;13.408;2022-10-16T13:52:28;21.90;9.70
1413;DHT22;701;52.526;13.408;2022-10-16T13:54:54;21.90;9.70
1413;DHT22;701;52.526;13.408;2022-10-16T13:57:25;21.80;10.00
1413;DHT22;701;52.526;13.408;2022-10-16T13:59:51;21.80;10.10
1413;DHT22;701;52.526;13.408;2022-10-16T14:02:37;21.80;10.20
1413;DHT22;701;52.526;13.408;2022-10-16T14:05:08;21.70;10.00
1413;DHT22;701;52.526;13.408;2022-10-16T14:07:35;21.70;10.30
1413;DHT22;701;52.526;13.408;2022-10-16T14:10:05;21.60;10.50
1413;DHT22;701;52.526;13.408;2022-10-16T14:12:32;21.50;10.50
1413;DHT22;701;52.526;13.408;2022-10-16T14:14:59;21.50;10.70
1413;DHT22;701;52.526;13.408;2022-10-16T14:17:33;21.40;10.90
1413;DHT22;701;52.526;13.408;2022-10-16T14:20:02;21.30;11.00
1413;DHT22;701;52.526;13.408;2022-10-16T14:24:55;21.20;11.40
1413;DHT22;701;52.526;13.408;2022-10-16T14:27:28;21.10;11.50
1413;DHT22;701;52.526;13.408;2022-10-16T14:30:18;21.10;11.70
1413;DHT22;701;52.526;13.408;2022-10-16T14:32:59;21.10;11.90
1413;DHT22;701;52.526;13.408;2022-10-16T14:35:35;21.00;11.90
1413;DHT22;701;52.526;13.408;2022-10-16T14:38:02;21.00;12.10
1413;DHT22;701;52.526;13.408;2022-10-16T14:40:31;20.90;12.30
1413;DHT22;701;52.526;13.408;2022-10-16T14:42:58;20.90;12.50
1413;DHT22;701;52.526;13.408;2022-10-16T14:45:28;20.80;12.80
1413;DHT22;701;52.526;13.408;2022-10-16T14:48:00;20.70;12.80
1413;DHT22;701;52.526;13.408;2022-10-16T14:50:26;20.70;12.80
1413;DHT22;701;52.526;13.408;2022-10-16T14:52:53;20.60;12.70
1413;DHT22;701;52.526;13.408;2022-10-16T14:55:19;20.50;12.90
1413;DHT22;701;52.526;13.408;2022-10-16T14:57:45;20.40;13.10
1413;DHT22;701;52.526;13.408;2022-10-16T15:00:23;20.30;13.30
1413;DHT22;701;52.526;13.408;2022-10-16T15:02:50;20.30;13.50
1413;DHT22;701;52.526;13.408;2022-10-16T15:05:24;20.20;13.70
1413;DHT22;701;52.526;13.408;2022-10-16T15:07:52;20.10;13.90
1413;DHT22;701;52.526;13.408;2022-10-16T15:10:19;20.00;13.90
1413;DHT22;701;52.526;13.408;2022-10-16T15:12:45;19.90;14.20
1413;DHT22;701;52.526;13.408;2022-10-16T15:15:37;19.90;15.00
1413;DHT22;701;52.526;13.408;2022-10-16T15:18:04;19.80;14.60
1413;DHT22;701;52.526;13.408;2022-10-16T15:20:32;19.70;14.70
1413;DHT22;701;52.526;13.408;2022-10-16T15:23:01;19.60;14.80
1413;DHT22;701;52.526;13.408;2022-10-16T15:28:08;19.40;14.80
1413;DHT22;701;52.526;13.408;2022-10-16T15:30:35;19.30;15.00
1413;DHT22;701;52.526;13.408;2022-10-16T15:33:01;19.20;15.00
1413;DHT22;701;52.526;13.408;2022-10-16T15:35:28;19.20;15.00
1413;DHT22;701;52.526;13.408;2022-10-16T15:37:53;19.10;15.00
1413;DHT22;701;52.526;13.408;2022-10-16T15:40:20;19.00;15.10
1413;DHT22;701;52.526;13.408;2022-10-16T15:42:46;19.00;15.30
1413;DHT22;701;52.526;13.408;2022-10-16T15:45:12;18.90;15.40
1413;DHT22;701;52.526;13.408;2022-10-16T15:47:38;18.80;15.30
1413;DHT22;701;52.526;13.408;2022-10-16T15:50:05;18.70;15.80
1413;DHT22;701;52.526;13.408;2022-10-16T15:52:31;18.70;15.30
1413;DHT22;701;52.526;13.408;2022-10-16T15:54:58;18.60;15.20
1413;DHT22;701;52.526;13.408;2022-10-16T15:57:24;18.50;15.40
1413;DHT22;701;52.526;13.408;2022-10-16T15:59:50;18.50;15.60
1413;DHT22;701;52.526;13.408;2022-10-16T16:02:16;18.40;15.70
1413;DHT22;701;52.526;13.408;2022-10-16T16:04:42;18.30;15.80
1413;DHT22;701;52.526;13.408;2022-10-16T16:07:07;18.30;16.00
1413;DHT22;701;52.526;13.408;2022-10-16T16:09:33;18.20;16.10
1413;DHT22;701;52.526;13.408;2022-10-16T16:11:59;18.20;16.40
1413;DHT22;701;52.526;13.408;2022-10-16T16:14:27;18.10;16.40
1413;DHT22;701;52.526;13.408;2022-10-16T16:16:56;18.00;16.60
1413;DHT22;701;52.526;13.408;2022-10-16T16:19:22;17.90;16.80
1413;DHT22;701;52.526;13.408;2022-10-16T16:21:49;17.90;16.90
1413;DHT22;701;52.526;13.408;2022-10-16T16:24:14;17.80;17.10
1413;DHT22;701;52.526;13.408;2022-10-16T16:26:40;17.70;17.20
1413;DHT22;701;52.526;13.408;2022-10-16T16:29:13;17.60;17.40
1413;DHT22;701;52.526;13.408;2022-10-16T16:31:39;17.50;17.50
1413;DHT22;701;52.526;13.408;2022-10-16T16:34:05;17.50;17.90
1413;DHT22;701;52.526;13.408;2022-10-16T16:36:32;17.30;18.10
1413;DHT22;701;52.526;13.408;2022-10-16T16:38:58;17.30;18.10
1413;DHT22;701;52.526;13.408;2022-10-16T16:41:28;17.30;18.10
1413;DHT22;701;52.526;13.408;2022-10-16T16:43:55;17.20;18.00
1413;DHT22;701;52.526;13.408;2022-10-16T16:46:26;17.20;18.30
1413;DHT22;701;52.526;13.408;2022-10-16T16:48:52;17.00;18.30
1413;DHT22;701;52.526;13.408;2022-10-16T16:51:20;17.00;18.60
1413;DHT22;701;52.526;13.408;2022-10-16T16:53:48;16.90;18.70
1413;DHT22;701;52.526;13.408;2022-10-16T16:56:15;16.90;18.90
1413;DHT22;701;52.526;13.408;2022-10-16T16:58:44;16.90;19.00
1413;DHT22;701;52.526;13.408;2022-10-16T17:01:10;16.80;19.20
1413;DHT22;701;52.526;13.408;2022-10-16T17:03:36;16.80;19.40
1413;DHT22;701;52.526;13.408;2022-10-16T17:06:05;16.70;19.40
1413;DHT22;701;52.526;13.408;2022-10-16T17:08:31;16.60;19.40
1413;DHT22;701;52.526;13.408;2022-10-16T17:10:57;16.60;19.60
1413;DHT22;701;52.526;13.408;2022-10-16T17:13:25;16.60;19.60
1413;DHT22;701;52.526;13.408;2022-10-16T17:15:51;16.50;19.70
1413;DHT22;701;52.526;13.408;2022-10-16T17:18:17;16.50;19.90
1413;DHT22;701;52.526;13.408;2022-10-16T17:20:43;16.50;19.90
1413;DHT22;701;52.526;13.408;2022-10-16T17:23:10;16.40;20.00
1413;DHT22;701;52.526;13.408;2022-10-16T17:25:40;16.40;20.00
1413;DHT22;701;52.526;13.408;2022-10-16T17:28:07;16.30;20.10
1413;DHT22;701;52.526;13.408;2022-10-16T17:30:33;16.20;20.10
1413;DHT22;701;52.526;13.408;2022-10-16T17:33:00;16.20;20.30
1413;DHT22;701;52.526;13.408;2022-10-16T17:35:26;16.10;20.50
1413;DHT22;701;52.526;13.408;2022-10-16T17:37:52;16.10;20.70
1413;DHT22;701;52.526;13.408;2022-10-16T17:40:19;16.00;20.90
1413;DHT22;701;52.526;13.408;2022-10-16T17:42:44;16.00;21.40
1413;DHT22;701;52.526;13.408;2022-10-16T17:45:10;15.90;20.80
1413;DHT22;701;52.526;13.408;2022-10-16T17:47:36;15.80;20.80
1413;DHT22;701;52.526;13.408;2022-10-16T17:50:03;15.80;21.10
1413;DHT22;701;52.526;13.408;2022-10-16T17:52:28;15.80;21.40
1413;DHT22;701;52.526;13.408;2022-10-16T17:54:54;15.70;21.50
1413;DHT22;701;52.526;13.408;2022-10-16T17:57:21;15.70;21.60
1413;DHT22;701;52.526;13.408;2022-10-16T17:59:47;15.60;21.80
1413;DHT22;701;52.526;13.408;2022-10-16T18:02:12;15.50;22.20
1413;DHT22;701;52.526;13.408;2022-10-16T18:04:39;15.50;22.60
1413;DHT22;701;52.526;13.408;2022-10-16T18:07:04;15.40;22.20
1413;DHT22;701;52.526;13.408;2022-10-16T18:09:31;15.40;22.40
1413;DHT22;701;52.526;13.408;2022-10-16T18:11:56;15.40;22.60
1413;DHT22;701;52.526;13.408;2022-10-16T18:14:27;15.30;22.70
1413;DHT22;701;52.526;13.408;2022-10-16T18:16:53;15.20;22.80
1413;DHT22;701;52.526;13.408;2022-10-16T18:19:20;15.20;23.10
1413;DHT22;701;52.526;13.408;2022-10-16T18:21:46;15.20;23.50
1413;DHT22;701;52.526;13.408;2022-10-16T18:24:14;15.10;23.90
1413;DHT22;701;52.526;13.408;2022-10-16T18:26:40;15.10;23.90
1413;DHT22;701;52.526;13.408;2022-10-16T18:29:06;15.10;24.40